Logo AVAMET
Benvolgut visitant, si us plau, ingressa Recuperar contrasenya

Montserrat Casadalt

Dades diàries. Acumulats / Últims 30 dies disponibles

Data Temperatura (°C) Humitat rel. (%) Pressió rel. (hPa) Vent (km/h) Precipitació
Mínima Mitjana Màxima Amplitud
tèrmica
Mínima Mitjana Màxima Mínima Mitjana Màxima Predom. Mitjana Ràfega
màxima
Total
(mm)
Índex-n
Mínima Mitjana Màxima Mínima Mitjana Màxima n
0 a 1
P0 max
mm 5'
Dades mensuals acumulades fins l'últim dia disponible
06/2019 12,5 16,1 18,9 21,1 22,2 27,1 33,4 20,9 13 59 95 1.004 1.013 1.022   7,7 66,0 0,0
Dades anuals acumulades fins l'últim dia disponible
2019 1,6 10,3 18,9 14,7 10,9 20,7 33,4 31,8 11 58 100 991 1.016 1.034   9,0 83,7 219,2
Últims 30 dies disponibles
24-06-2019 18,4     23,1     27,8 9,4 33 61 85 1.011 1.012 1.014 S 7,8 32,2 0,0
23-06-2019 17,3     23,3     28,9 11,6 35 62 90 1.011 1.013 1.014 SE 6,6 32,2 0,0
22-06-2019 18,1     22,2     27,0 8,9 46 66 84 1.012 1.014 1.016 SE 5,6 30,6 0,0
21-06-2019 18,9     21,8     25,8 6,9 56 72 87 1.011 1.012 1.015 ESE 3,4 30,6 0,0
20-06-2019 18,3     21,7     25,8 7,5 48 70 93 1.009 1.010 1.012 ESE 5,3 35,4 0,0
19-06-2019 17,1     23,7     30,9 13,8 26 55 86 1.008 1.010 1.012 SE 7,7 33,8 0,0
18-06-2019 16,7     21,9     28,4 11,7 38 64 82 1.010 1.012 1.014 NE 7,6 27,4 0,0
17-06-2019 15,9     22,2     30,8 14,9 28 62 90 1.012 1.014 1.017 NE 8,7 30,6 0,0
16-06-2019 16,6     20,0     23,9 7,3 49 67 86 1.016 1.017 1.019 N 6,1 24,1 0,0
15-06-2019 17,4     24,1     33,4 16,0 13 32 62 1.011 1.013 1.017 W 13,4 45,1 0,0
14-06-2019 15,5     23,6     33,4 17,9 16 46 77 1.007 1.009 1.011 N 8,4 37,0 0,0
13-06-2019 15,7     18,5     23,3 7,6 52 70 83 1.010 1.011 1.013 N 6,1 33,8 0,0
12-06-2019 12,5     17,0     22,3 9,8 37 64 80 1.012 1.013 1.015 N 6,8 38,6 0,0
11-06-2019 14,7     18,3     23,1 8,4 41 62 78 1.008 1.010 1.013 ESE 7,1 33,8 0,0
10-06-2019 16,6     20,7     25,9 9,3 28 53 77 1.009 1.011 1.013 SE 6,1 43,5 0,0
09-06-2019 15,6     20,1     28,1 12,5 26 53 77 1.010 1.014 1.018 W 6,4 30,6 0,0
08-06-2019 16,3     18,8     22,2 5,9 52 67 85 1.017 1.019 1.021 N 9,2 37,0 0,0
07-06-2019 14,3     22,3     29,9 15,6 15 52 94 1.009 1.011 1.017 W 12,2 45,1 0,0
06-06-2019 15,1     19,1     23,4 8,3 50 69 86 1.009 1.011 1.013 ESE 8,4 35,4 0,0
05-06-2019 16,1     21,5     28,8 12,7 14 54 95 1.004 1.006 1.011 W 12,7 66,0 0,0
04-06-2019 15,5     20,5     25,6 10,1 51 70 85 1.006 1.009 1.014 NE 6,8 27,4 0,0
03-06-2019 15,0     20,7     27,2 12,2 35 57 80 1.013 1.015 1.017 S 6,3 27,4 0,0
02-06-2019 15,3     21,0     27,2 11,9 23 43 64 1.016 1.017 1.019 N 8,9 32,2 0,0
01-06-2019 14,1     20,5     26,8 12,7 27 48 68 1.018 1.020 1.022 SSE 7,1 33,8 0,0
31-05-2019 14,3     20,3     26,3 12,0 30 48 69 1.021 1.022 1.023 SE 7,4 37,0 0,0
30-05-2019 13,1     19,6     25,7 12,6 28 47 70 1.021 1.022 1.024 SSE 6,4 32,2 0,0
29-05-2019 13,7     18,5     24,2 10,5 26 45 71 1.016 1.018 1.022 N 7,1 38,6 0,0
28-05-2019 15,3     19,3     23,7 8,4 44 58 78 1.010 1.012 1.016 SSE 7,4 38,6 0,0
27-05-2019 14,8     19,9     24,7 9,9 36 56 78 1.009 1.011 1.014 N 6,9 32,2 0,0
26-05-2019 14,6     18,9     23,9 9,3 36 56 71 1.013 1.014 1.017 N 6,9 32,2 0,0
Últims 13 mesos disponibles
05/2019 8,2 13,4 18,4 17,9 18,0 23,5 31,8 23,6 45 63 87 1.003 1.013 1.022 N 7,2 61,2 14,0
04/2019 6,7 10,2 12,8 14,1 13,4 19,8 29,8 23,1 33 65 99 998 1.011 1.023 W 10,5 67,6 175,8
03/2019 6,4 9,6 13,7 14,1 10,9 20,5 29,1 22,7 31 52 91 1.008 1.021 1.028 N 8,0 66,0 28,2
02/2019 3,4 7,3 12,1 11,6 12,3 18,2 26,8 23,4 32 59 78 993 1.023 1.032 W 8,3 83,7 1,0
01/2019 1,6 6,3 10,4 10,4 12,0 16,4 21,4 19,8 35 52 71 1.000 1.017 1.029 W 11,9 80,5 0,2
12/2018 6,1 8,7 12,5 12,3 13,3 17,8 22,9 16,8 37 64 84 1.007 1.023 1.029 W 11,5 64,4 11,2
11/2018 6,2 10,3 14,4 13,2 12,3 17,3 23,9 17,7 46 73 99 1.000 1.014 1.022 W 10,8 70,8 182,4
10/2018 5,7 14,0 18,9 17,4 12,5 22,4 30,4 24,7 46 71 94 998 1.013 1.024 W 8,9 64,4 151,4
09/2018 15,9 19,5 22,1 22,9 22,1 27,6 31,3 15,4 51 76 89 1.010 1.017 1.027 ESE 7,1 41,8 108,0
08/2018 19,8 22,1 25,3 26,2 27,2 31,9 37,6 17,8 45 65 78 1.010 1.014 1.019 SSE 8,2 64,4 16,2
07/2018 20,1 21,4 22,9 26,1 27,9 31,6 38,0 17,9 ESE 8,3 53,1 1,0
06/2018 13,6 18,1 21,2 22,7 23,3 28,3 33,2 19,6 ESE 8,2 45,1 88,8
05/2018 8,5 13,8 16,8 18,5 19,3 24,7 29,8 21,3 W 8,4 49,9 24,8
Tots els anys disponibles
2018 1,1 13,5 25,3 17,4 7,4 22,8 38,0 36,9 37 70 99 998 1.016 1.029 W 10,2 86,9 734,0
2017 -0,7 13,5 25,3 17,6 6,6 23,1 38,0 38,7 9,1 85,3 336,2
2016 1,8 13,8 27,1 17,7 9,6 22,9 39,6 37,8 9,8 83,7 541,0
2015 0,7 13,6 21,1 17,6 21,0 22,9 41,8 41,1 6,2 83,7 468,4
2014 1,3 13,8 23,5 17,8 8,8 23,2 41,1 39,8 7,6 82,1 324,0
2013 1,2 12,9 16,8 16,8 18,7 22,2 36,1 34,9 8,4 78,9 337,8
2012 -2,3 13,0 18,1 17,1 21,4 22,5 37,2 39,5 7,2 82,1 431,2
2011 -1,1 13,5 22,8 17,1 6,6 22,2 39,0 40,1 8,4 83,7 426,0
2010 -1,8 12,4 26,2 16,3 3,7 21,4 42,0 43,8 9,2 109,4 559,4
2009 -2,2 13,2 23,7 17,1 4,6 22,5 41,7 43,9 9,7 99,8 807,4
2008 1,6 12,5 17,1 21,7 37,0 35,4 10,6 74,0 733,8
2007 2,1 13,0 17,4 21,7 37,6 35,5 42 67 88 1.027 1.027 1.027 2,3 37,0 698,8
2006 -3,2 13,4 17,8 22,2 35,6 38,8 48 70 97 3,1 45,0 531,7
2005 -4,9 12,1 16,6 21,1 36,5 41,4 357,2
Temperatura (°C)
Humitat relativa (%)
Velocitat del vent i ràfega màxima (km/h)
Direcció del vent (°)
Pressió (hPa)
Precipitació (mm)
Nota sobre les dades: s'avisa a l'usuari de la provisionalitat i no oficialitat d'aquestes dades
Logo AVAMET blanc
Web allotjada a Sollutia
Llicència de Creative CommonsLa web d'AVAMET i els seus continguts estan subjectes a una llicència de
Reconeixement - No Comercial - Compartir igual
Properes estacions: Catadau - Urb. Lloma Molina (Inforatge), Altea - Club Nàutic d'Altea (Soci), Ares del Maestrat (Ajuntament Soci),      - - - - -      Últimes estacions: Ontinyent - El Pilar (Soci), Asp - Poliesportiu (Soci), Jacarilla - centro (MeteOrihuela), Elx - Maitino/Vallverda/Velarde/Matola/Ferriol (Soci TiempoElche.com) - - -